sensor_id;sensor_type;location;lat;lon;timestamp;P1;durP1;ratioP1;P2;durP2;ratioP2
40729;SDS011;26418;50.070;8.436;2024-03-25T00:00:12;4.28;;;1.42;;
40729;SDS011;26418;50.070;8.436;2024-03-25T00:02:40;5.70;;;1.75;;
40729;SDS011;26418;50.070;8.436;2024-03-25T00:05:06;2.45;;;0.90;;
40729;SDS011;26418;50.070;8.436;2024-03-25T00:07:34;3.30;;;1.20;;
40729;SDS011;26418;50.070;8.436;2024-03-25T00:10:01;5.50;;;1.77;;
40729;SDS011;26418;50.070;8.436;2024-03-25T00:12:27;4.32;;;1.52;;
40729;SDS011;26418;50.070;8.436;2024-03-25T00:14:52;4.30;;;1.63;;
40729;SDS011;26418;50.070;8.436;2024-03-25T00:17:18;3.60;;;1.13;;
40729;SDS011;26418;50.070;8.436;2024-03-25T00:19:45;5.90;;;1.48;;
40729;SDS011;26418;50.070;8.436;2024-03-25T00:22:16;4.88;;;1.13;;
40729;SDS011;26418;50.070;8.436;2024-03-25T00:24:45;3.63;;;0.90;;
40729;SDS011;26418;50.070;8.436;2024-03-25T00:27:12;5.20;;;0.98;;
40729;SDS011;26418;50.070;8.436;2024-03-25T00:29:38;6.93;;;1.77;;
40729;SDS011;26418;50.070;8.436;2024-03-25T00:32:04;7.78;;;1.52;;
40729;SDS011;26418;50.070;8.436;2024-03-25T00:34:34;5.13;;;1.15;;
40729;SDS011;26418;50.070;8.436;2024-03-25T00:37:00;5.72;;;1.30;;
40729;SDS011;26418;50.070;8.436;2024-03-25T00:39:26;8.57;;;1.55;;
40729;SDS011;26418;50.070;8.436;2024-03-25T00:41:52;6.40;;;1.40;;
40729;SDS011;26418;50.070;8.436;2024-03-25T00:44:18;4.75;;;1.02;;
40729;SDS011;26418;50.070;8.436;2024-03-25T00:46:44;6.93;;;1.25;;
40729;SDS011;26418;50.070;8.436;2024-03-25T00:49:10;6.68;;;1.67;;
40729;SDS011;26418;50.070;8.436;2024-03-25T00:51:36;3.70;;;1.42;;
40729;SDS011;26418;50.070;8.436;2024-03-25T00:54:02;5.05;;;1.73;;
40729;SDS011;26418;50.070;8.436;2024-03-25T00:56:29;5.90;;;1.50;;
40729;SDS011;26418;50.070;8.436;2024-03-25T00:58:55;4.55;;;1.60;;
40729;SDS011;26418;50.070;8.436;2024-03-25T01:01:23;6.50;;;1.17;;
40729;SDS011;26418;50.070;8.436;2024-03-25T01:03:48;5.32;;;1.42;;
40729;SDS011;26418;50.070;8.436;2024-03-25T01:06:14;7.18;;;1.60;;
40729;SDS011;26418;50.070;8.436;2024-03-25T01:08:40;7.30;;;1.73;;
40729;SDS011;26418;50.070;8.436;2024-03-25T01:11:11;4.75;;;1.60;;
40729;SDS011;26418;50.070;8.436;2024-03-25T01:13:37;8.50;;;1.70;;
40729;SDS011;26418;50.070;8.436;2024-03-25T01:16:02;6.53;;;1.48;;
40729;SDS011;26418;50.070;8.436;2024-03-25T01:18:28;8.93;;;1.80;;
40729;SDS011;26418;50.070;8.436;2024-03-25T01:20:53;5.07;;;1.23;;
40729;SDS011;26418;50.070;8.436;2024-03-25T01:23:19;8.73;;;1.60;;
40729;SDS011;26418;50.070;8.436;2024-03-25T01:25:45;4.18;;;1.50;;
40729;SDS011;26418;50.070;8.436;2024-03-25T01:28:14;6.47;;;2.20;;
40729;SDS011;26418;50.070;8.436;2024-03-25T01:30:39;5.15;;;1.38;;
40729;SDS011;26418;50.070;8.436;2024-03-25T01:33:08;7.07;;;2.17;;
40729;SDS011;26418;50.070;8.436;2024-03-25T01:35:33;6.22;;;2.03;;
40729;SDS011;26418;50.070;8.436;2024-03-25T01:37:59;7.45;;;2.17;;
40729;SDS011;26418;50.070;8.436;2024-03-25T01:40:28;8.32;;;2.03;;
40729;SDS011;26418;50.070;8.436;2024-03-25T01:42:57;4.20;;;1.30;;
40729;SDS011;26418;50.070;8.436;2024-03-25T01:45:31;4.68;;;1.73;;
40729;SDS011;26418;50.070;8.436;2024-03-25T01:48:06;4.43;;;1.42;;
40729;SDS011;26418;50.070;8.436;2024-03-25T01:50:37;3.42;;;1.52;;
40729;SDS011;26418;50.070;8.436;2024-03-25T01:53:06;10.20;;;1.77;;
40729;SDS011;26418;50.070;8.436;2024-03-25T01:55:36;4.30;;;1.50;;
40729;SDS011;26418;50.070;8.436;2024-03-25T01:58:03;6.03;;;1.83;;
40729;SDS011;26418;50.070;8.436;2024-03-25T02:00:30;3.08;;;1.33;;
40729;SDS011;26418;50.070;8.436;2024-03-25T02:02:59;3.38;;;1.25;;
40729;SDS011;26418;50.070;8.436;2024-03-25T02:05:25;5.00;;;1.83;;
40729;SDS011;26418;50.070;8.436;2024-03-25T02:07:53;3.75;;;1.38;;
40729;SDS011;26418;50.070;8.436;2024-03-25T02:10:20;4.43;;;1.13;;
40729;SDS011;26418;50.070;8.436;2024-03-25T02:12:49;3.95;;;1.55;;
40729;SDS011;26418;50.070;8.436;2024-03-25T02:15:15;8.90;;;1.90;;
40729;SDS011;26418;50.070;8.436;2024-03-25T02:17:41;4.10;;;1.75;;
40729;SDS011;26418;50.070;8.436;2024-03-25T02:20:10;4.05;;;1.65;;
40729;SDS011;26418;50.070;8.436;2024-03-25T02:22:37;4.80;;;1.63;;
40729;SDS011;26418;50.070;8.436;2024-03-25T02:25:06;4.93;;;1.58;;
40729;SDS011;26418;50.070;8.436;2024-03-25T02:27:33;11.30;;;1.63;;
40729;SDS011;26418;50.070;8.436;2024-03-25T02:30:17;4.13;;;1.77;;
40729;SDS011;26418;50.070;8.436;2024-03-25T02:32:43;3.95;;;1.67;;
40729;SDS011;26418;50.070;8.436;2024-03-25T02:35:12;8.93;;;1.70;;
40729;SDS011;26418;50.070;8.436;2024-03-25T02:37:40;5.32;;;1.67;;
40729;SDS011;26418;50.070;8.436;2024-03-25T02:40:06;6.38;;;2.20;;
40729;SDS011;26418;50.070;8.436;2024-03-25T02:42:36;4.57;;;1.77;;
40729;SDS011;26418;50.070;8.436;2024-03-25T02:45:16;6.03;;;1.42;;
40729;SDS011;26418;50.070;8.436;2024-03-25T02:47:48;5.63;;;1.65;;
40729;SDS011;26418;50.070;8.436;2024-03-25T02:50:15;4.53;;;1.75;;
40729;SDS011;26418;50.070;8.436;2024-03-25T02:52:41;5.38;;;1.65;;
40729;SDS011;26418;50.070;8.436;2024-03-25T02:55:07;4.95;;;1.92;;
40729;SDS011;26418;50.070;8.436;2024-03-25T02:57:32;8.20;;;1.98;;
40729;SDS011;26418;50.070;8.436;2024-03-25T03:00:01;10.13;;;2.13;;
40729;SDS011;26418;50.070;8.436;2024-03-25T03:02:33;4.03;;;1.90;;
40729;SDS011;26418;50.070;8.436;2024-03-25T03:04:58;4.90;;;1.67;;
40729;SDS011;26418;50.070;8.436;2024-03-25T03:07:27;5.78;;;1.67;;
40729;SDS011;26418;50.070;8.436;2024-03-25T03:09:53;14.93;;;1.55;;
40729;SDS011;26418;50.070;8.436;2024-03-25T03:12:18;6.10;;;1.55;;
40729;SDS011;26418;50.070;8.436;2024-03-25T03:14:53;5.10;;;1.80;;
40729;SDS011;26418;50.070;8.436;2024-03-25T03:17:18;4.38;;;1.70;;
40729;SDS011;26418;50.070;8.436;2024-03-25T03:19:47;6.43;;;1.25;;
40729;SDS011;26418;50.070;8.436;2024-03-25T03:22:18;5.90;;;1.67;;
40729;SDS011;26418;50.070;8.436;2024-03-25T03:27:09;11.23;;;2.40;;
40729;SDS011;26418;50.070;8.436;2024-03-25T03:29:47;9.80;;;2.38;;
40729;SDS011;26418;50.070;8.436;2024-03-25T03:32:13;8.30;;;2.63;;
40729;SDS011;26418;50.070;8.436;2024-03-25T03:34:38;6.20;;;2.45;;
40729;SDS011;26418;50.070;8.436;2024-03-25T03:37:03;7.05;;;2.00;;
40729;SDS011;26418;50.070;8.436;2024-03-25T03:39:32;2.35;;;1.73;;
40729;SDS011;26418;50.070;8.436;2024-03-25T03:41:58;3.60;;;1.75;;
40729;SDS011;26418;50.070;8.436;2024-03-25T03:44:23;10.25;;;2.22;;
40729;SDS011;26418;50.070;8.436;2024-03-25T03:46:49;4.15;;;1.80;;
40729;SDS011;26418;50.070;8.436;2024-03-25T03:49:15;4.97;;;1.90;;
40729;SDS011;26418;50.070;8.436;2024-03-25T03:51:40;7.10;;;1.80;;
40729;SDS011;26418;50.070;8.436;2024-03-25T03:54:06;7.75;;;1.65;;
40729;SDS011;26418;50.070;8.436;2024-03-25T03:56:34;5.72;;;1.60;;
40729;SDS011;26418;50.070;8.436;2024-03-25T03:59:03;6.88;;;1.65;;
40729;SDS011;26418;50.070;8.436;2024-03-25T04:01:29;3.15;;;1.38;;
40729;SDS011;26418;50.070;8.436;2024-03-25T04:04:00;7.10;;;1.90;;
40729;SDS011;26418;50.070;8.436;2024-03-25T04:06:26;7.43;;;2.38;;
40729;SDS011;26418;50.070;8.436;2024-03-25T04:08:54;3.45;;;1.50;;
40729;SDS011;26418;50.070;8.436;2024-03-25T04:11:20;6.22;;;1.55;;
40729;SDS011;26418;50.070;8.436;2024-03-25T04:13:46;4.20;;;1.45;;
40729;SDS011;26418;50.070;8.436;2024-03-25T04:16:12;7.50;;;1.70;;
40729;SDS011;26418;50.070;8.436;2024-03-25T04:18:38;3.75;;;1.38;;
40729;SDS011;26418;50.070;8.436;2024-03-25T04:21:03;7.32;;;1.88;;
40729;SDS011;26418;50.070;8.436;2024-03-25T04:23:32;3.15;;;1.50;;
40729;SDS011;26418;50.070;8.436;2024-03-25T04:26:00;8.77;;;2.25;;
40729;SDS011;26418;50.070;8.436;2024-03-25T04:28:29;5.88;;;1.30;;
40729;SDS011;26418;50.070;8.436;2024-03-25T04:30:57;5.68;;;1.40;;
40729;SDS011;26418;50.070;8.436;2024-03-25T04:33:23;4.38;;;1.75;;
40729;SDS011;26418;50.070;8.436;2024-03-25T04:35:49;5.15;;;1.95;;
40729;SDS011;26418;50.070;8.436;2024-03-25T04:38:17;4.57;;;1.80;;
40729;SDS011;26418;50.070;8.436;2024-03-25T04:40:43;4.65;;;1.98;;
40729;SDS011;26418;50.070;8.436;2024-03-25T04:43:11;4.78;;;1.67;;
40729;SDS011;26418;50.070;8.436;2024-03-25T04:45:37;6.28;;;1.90;;
40729;SDS011;26418;50.070;8.436;2024-03-25T04:48:03;2.25;;;1.45;;
40729;SDS011;26418;50.070;8.436;2024-03-25T04:50:30;5.55;;;2.10;;
40729;SDS011;26418;50.070;8.436;2024-03-25T04:52:59;6.13;;;2.42;;
40729;SDS011;26418;50.070;8.436;2024-03-25T04:55:24;7.20;;;2.20;;
40729;SDS011;26418;50.070;8.436;2024-03-25T04:57:50;5.30;;;1.92;;
40729;SDS011;26418;50.070;8.436;2024-03-25T05:00:16;4.63;;;2.22;;
40729;SDS011;26418;50.070;8.436;2024-03-25T05:02:48;8.48;;;2.50;;
40729;SDS011;26418;50.070;8.436;2024-03-25T05:05:16;8.10;;;2.70;;
40729;SDS011;26418;50.070;8.436;2024-03-25T05:07:45;5.85;;;1.92;;
40729;SDS011;26418;50.070;8.436;2024-03-25T05:10:10;5.22;;;2.25;;
40729;SDS011;26418;50.070;8.436;2024-03-25T05:12:36;9.90;;;2.22;;
40729;SDS011;26418;50.070;8.436;2024-03-25T05:15:06;9.95;;;2.40;;
40729;SDS011;26418;50.070;8.436;2024-03-25T05:17:32;12.93;;;3.10;;
40729;SDS011;26418;50.070;8.436;2024-03-25T05:19:57;5.95;;;2.50;;
40729;SDS011;26418;50.070;8.436;2024-03-25T05:22:23;4.55;;;2.28;;
40729;SDS011;26418;50.070;8.436;2024-03-25T05:24:49;6.00;;;2.28;;
40729;SDS011;26418;50.070;8.436;2024-03-25T05:27:15;10.80;;;3.38;;
40729;SDS011;26418;50.070;8.436;2024-03-25T05:29:40;4.75;;;2.38;;
40729;SDS011;26418;50.070;8.436;2024-03-25T05:32:06;13.65;;;3.20;;
40729;SDS011;26418;50.070;8.436;2024-03-25T05:34:32;4.63;;;2.33;;
40729;SDS011;26418;50.070;8.436;2024-03-25T05:36:57;7.75;;;2.55;;
40729;SDS011;26418;50.070;8.436;2024-03-25T05:39:23;6.47;;;2.45;;
40729;SDS011;26418;50.070;8.436;2024-03-25T05:41:48;8.55;;;2.35;;
40729;SDS011;26418;50.070;8.436;2024-03-25T05:44:18;6.18;;;2.13;;
40729;SDS011;26418;50.070;8.436;2024-03-25T05:46:43;6.20;;;2.35;;
40729;SDS011;26418;50.070;8.436;2024-03-25T05:49:09;11.82;;;2.72;;
40729;SDS011;26418;50.070;8.436;2024-03-25T05:51:35;8.77;;;2.40;;
40729;SDS011;26418;50.070;8.436;2024-03-25T05:54:01;11.30;;;2.92;;
40729;SDS011;26418;50.070;8.436;2024-03-25T05:56:27;6.30;;;2.40;;
40729;SDS011;26418;50.070;8.436;2024-03-25T05:58:58;9.60;;;2.40;;
40729;SDS011;26418;50.070;8.436;2024-03-25T06:01:25;7.53;;;2.72;;
40729;SDS011;26418;50.070;8.436;2024-03-25T06:03:51;8.57;;;2.47;;
40729;SDS011;26418;50.070;8.436;2024-03-25T06:06:17;6.75;;;2.60;;
40729;SDS011;26418;50.070;8.436;2024-03-25T06:08:42;7.40;;;2.65;;
40729;SDS011;26418;50.070;8.436;2024-03-25T06:11:08;4.50;;;2.70;;
40729;SDS011;26418;50.070;8.436;2024-03-25T06:13:34;5.05;;;2.00;;
40729;SDS011;26418;50.070;8.436;2024-03-25T06:15:59;5.20;;;2.30;;
40729;SDS011;26418;50.070;8.436;2024-03-25T06:18:25;5.15;;;2.85;;
40729;SDS011;26418;50.070;8.436;2024-03-25T06:20:51;9.07;;;3.33;;
40729;SDS011;26418;50.070;8.436;2024-03-25T06:23:23;8.18;;;2.85;;
40729;SDS011;26418;50.070;8.436;2024-03-25T06:25:49;12.65;;;3.25;;
40729;SDS011;26418;50.070;8.436;2024-03-25T06:28:15;15.00;;;3.15;;
40729;SDS011;26418;50.070;8.436;2024-03-25T06:30:41;8.10;;;2.50;;
40729;SDS011;26418;50.070;8.436;2024-03-25T06:33:28;12.85;;;3.58;;
40729;SDS011;26418;50.070;8.436;2024-03-25T06:36:12;15.35;;;4.20;;
40729;SDS011;26418;50.070;8.436;2024-03-25T06:38:38;8.95;;;3.15;;
40729;SDS011;26418;50.070;8.436;2024-03-25T06:41:03;8.88;;;2.85;;
40729;SDS011;26418;50.070;8.436;2024-03-25T06:43:32;8.93;;;3.45;;
40729;SDS011;26418;50.070;8.436;2024-03-25T06:45:57;10.63;;;3.25;;
40729;SDS011;26418;50.070;8.436;2024-03-25T06:48:23;11.05;;;3.28;;
40729;SDS011;26418;50.070;8.436;2024-03-25T06:50:58;12.95;;;3.60;;
40729;SDS011;26418;50.070;8.436;2024-03-25T06:53:24;10.73;;;3.05;;
40729;SDS011;26418;50.070;8.436;2024-03-25T06:55:53;13.63;;;3.08;;
40729;SDS011;26418;50.070;8.436;2024-03-25T06:58:39;6.45;;;2.30;;
40729;SDS011;26418;50.070;8.436;2024-03-25T07:01:05;13.27;;;2.78;;
40729;SDS011;26418;50.070;8.436;2024-03-25T07:03:35;6.82;;;2.05;;
40729;SDS011;26418;50.070;8.436;2024-03-25T07:06:01;9.07;;;2.47;;
40729;SDS011;26418;50.070;8.436;2024-03-25T07:08:32;8.32;;;2.63;;
40729;SDS011;26418;50.070;8.436;2024-03-25T07:10:58;9.63;;;2.53;;
40729;SDS011;26418;50.070;8.436;2024-03-25T07:13:24;6.18;;;2.47;;
40729;SDS011;26418;50.070;8.436;2024-03-25T07:15:52;10.07;;;2.35;;
40729;SDS011;26418;50.070;8.436;2024-03-25T07:18:18;7.60;;;2.25;;
40729;SDS011;26418;50.070;8.436;2024-03-25T07:20:46;10.05;;;2.70;;
40729;SDS011;26418;50.070;8.436;2024-03-25T07:23:12;13.60;;;3.22;;
40729;SDS011;26418;50.070;8.436;2024-03-25T07:25:38;5.35;;;2.38;;
40729;SDS011;26418;50.070;8.436;2024-03-25T07:28:08;9.48;;;2.78;;
40729;SDS011;26418;50.070;8.436;2024-03-25T07:30:33;6.20;;;2.50;;
40729;SDS011;26418;50.070;8.436;2024-03-25T07:32:59;9.80;;;1.98;;
40729;SDS011;26418;50.070;8.436;2024-03-25T07:35:25;9.75;;;2.30;;
40729;SDS011;26418;50.070;8.436;2024-03-25T07:37:50;8.45;;;2.05;;
40729;SDS011;26418;50.070;8.436;2024-03-25T07:40:19;10.25;;;2.25;;
40729;SDS011;26418;50.070;8.436;2024-03-25T07:42:46;8.70;;;2.17;;
40729;SDS011;26418;50.070;8.436;2024-03-25T07:45:12;8.02;;;2.03;;
40729;SDS011;26418;50.070;8.436;2024-03-25T07:47:37;9.52;;;2.42;;
40729;SDS011;26418;50.070;8.436;2024-03-25T07:50:06;14.85;;;1.83;;
40729;SDS011;26418;50.070;8.436;2024-03-25T07:52:35;14.20;;;2.85;;
40729;SDS011;26418;50.070;8.436;2024-03-25T07:55:05;9.00;;;2.95;;
40729;SDS011;26418;50.070;8.436;2024-03-25T07:57:31;9.60;;;1.90;;
40729;SDS011;26418;50.070;8.436;2024-03-25T07:59:59;8.70;;;2.33;;
40729;SDS011;26418;50.070;8.436;2024-03-25T08:02:28;13.63;;;2.40;;
40729;SDS011;26418;50.070;8.436;2024-03-25T08:04:55;5.78;;;2.00;;
40729;SDS011;26418;50.070;8.436;2024-03-25T08:07:21;9.18;;;2.20;;
40729;SDS011;26418;50.070;8.436;2024-03-25T08:09:46;9.93;;;1.70;;
40729;SDS011;26418;50.070;8.436;2024-03-25T08:12:12;11.85;;;2.30;;
40729;SDS011;26418;50.070;8.436;2024-03-25T08:14:37;8.25;;;2.20;;
40729;SDS011;26418;50.070;8.436;2024-03-25T08:17:03;12.90;;;2.25;;
40729;SDS011;26418;50.070;8.436;2024-03-25T08:19:31;13.00;;;3.03;;
40729;SDS011;26418;50.070;8.436;2024-03-25T08:21:57;5.95;;;2.40;;
40729;SDS011;26418;50.070;8.436;2024-03-25T08:24:23;11.68;;;2.17;;
40729;SDS011;26418;50.070;8.436;2024-03-25T08:26:51;7.85;;;1.60;;
40729;SDS011;26418;50.070;8.436;2024-03-25T08:29:16;18.90;;;2.22;;
40729;SDS011;26418;50.070;8.436;2024-03-25T08:31:45;14.80;;;2.45;;
40729;SDS011;26418;50.070;8.436;2024-03-25T08:34:14;11.73;;;2.67;;
40729;SDS011;26418;50.070;8.436;2024-03-25T08:36:39;8.25;;;2.78;;
40729;SDS011;26418;50.070;8.436;2024-03-25T08:39:05;7.22;;;1.90;;
40729;SDS011;26418;50.070;8.436;2024-03-25T08:41:30;14.23;;;2.03;;
40729;SDS011;26418;50.070;8.436;2024-03-25T08:43:56;20.38;;;2.58;;
40729;SDS011;26418;50.070;8.436;2024-03-25T08:46:21;9.30;;;1.95;;
40729;SDS011;26418;50.070;8.436;2024-03-25T08:48:47;14.00;;;2.85;;
40729;SDS011;26418;50.070;8.436;2024-03-25T08:51:12;8.82;;;2.33;;
40729;SDS011;26418;50.070;8.436;2024-03-25T08:53:41;5.45;;;1.88;;
40729;SDS011;26418;50.070;8.436;2024-03-25T08:56:06;10.70;;;2.97;;
40729;SDS011;26418;50.070;8.436;2024-03-25T08:58:32;8.30;;;2.20;;
40729;SDS011;26418;50.070;8.436;2024-03-25T09:00:57;11.10;;;1.98;;
40729;SDS011;26418;50.070;8.436;2024-03-25T09:03:25;5.30;;;1.73;;
40729;SDS011;26418;50.070;8.436;2024-03-25T09:05:51;9.13;;;1.55;;
40729;SDS011;26418;50.070;8.436;2024-03-25T09:08:20;6.32;;;1.27;;
40729;SDS011;26418;50.070;8.436;2024-03-25T09:10:45;7.13;;;2.22;;
40729;SDS011;26418;50.070;8.436;2024-03-25T09:13:35;6.45;;;2.13;;
40729;SDS011;26418;50.070;8.436;2024-03-25T09:16:00;10.55;;;2.10;;
40729;SDS011;26418;50.070;8.436;2024-03-25T09:18:26;10.45;;;2.42;;
40729;SDS011;26418;50.070;8.436;2024-03-25T09:20:52;9.38;;;1.67;;
40729;SDS011;26418;50.070;8.436;2024-03-25T09:23:18;10.63;;;1.77;;
40729;SDS011;26418;50.070;8.436;2024-03-25T09:25:53;9.95;;;2.08;;
40729;SDS011;26418;50.070;8.436;2024-03-25T09:28:19;8.38;;;1.77;;
40729;SDS011;26418;50.070;8.436;2024-03-25T09:30:44;14.32;;;2.58;;
40729;SDS011;26418;50.070;8.436;2024-03-25T09:33:13;9.95;;;2.05;;
40729;SDS011;26418;50.070;8.436;2024-03-25T09:35:41;9.07;;;2.20;;
40729;SDS011;26418;50.070;8.436;2024-03-25T09:38:08;13.85;;;2.33;;
40729;SDS011;26418;50.070;8.436;2024-03-25T09:40:37;8.02;;;2.75;;
40729;SDS011;26418;50.070;8.436;2024-03-25T09:46:13;6.10;;;1.45;;
40729;SDS011;26418;50.070;8.436;2024-03-25T09:48:38;5.97;;;2.10;;
40729;SDS011;26418;50.070;8.436;2024-03-25T09:51:05;5.25;;;1.73;;
40729;SDS011;26418;50.070;8.436;2024-03-25T09:53:31;7.18;;;1.50;;
40729;SDS011;26418;50.070;8.436;2024-03-25T09:55:57;8.95;;;1.95;;
40729;SDS011;26418;50.070;8.436;2024-03-25T09:58:24;5.20;;;1.30;;
40729;SDS011;26418;50.070;8.436;2024-03-25T10:00:53;5.43;;;1.85;;
40729;SDS011;26418;50.070;8.436;2024-03-25T10:03:29;6.18;;;1.90;;
40729;SDS011;26418;50.070;8.436;2024-03-25T10:05:54;5.72;;;1.50;;
40729;SDS011;26418;50.070;8.436;2024-03-25T10:08:21;11.07;;;2.20;;
40729;SDS011;26418;50.070;8.436;2024-03-25T10:10:46;7.88;;;1.90;;
40729;SDS011;26418;50.070;8.436;2024-03-25T10:13:15;5.90;;;1.58;;
40729;SDS011;26418;50.070;8.436;2024-03-25T10:15:41;8.52;;;2.15;;
40729;SDS011;26418;50.070;8.436;2024-03-25T10:18:13;5.55;;;1.90;;
40729;SDS011;26418;50.070;8.436;2024-03-25T10:23:12;7.38;;;1.77;;
40729;SDS011;26418;50.070;8.436;2024-03-25T10:25:37;12.27;;;2.45;;
40729;SDS011;26418;50.070;8.436;2024-03-25T10:28:03;8.90;;;1.75;;
40729;SDS011;26418;50.070;8.436;2024-03-25T10:30:30;6.28;;;1.45;;
40729;SDS011;26418;50.070;8.436;2024-03-25T10:32:59;4.47;;;1.75;;
40729;SDS011;26418;50.070;8.436;2024-03-25T10:35:28;6.85;;;1.38;;
40729;SDS011;26418;50.070;8.436;2024-03-25T10:38:00;5.65;;;1.65;;
40729;SDS011;26418;50.070;8.436;2024-03-25T10:40:29;6.10;;;1.40;;
40729;SDS011;26418;50.070;8.436;2024-03-25T10:43:02;5.65;;;1.30;;
40729;SDS011;26418;50.070;8.436;2024-03-25T10:45:31;5.70;;;1.65;;
40729;SDS011;26418;50.070;8.436;2024-03-25T10:48:02;8.02;;;2.05;;
40729;SDS011;26418;50.070;8.436;2024-03-25T10:50:31;6.25;;;1.52;;
40729;SDS011;26418;50.070;8.436;2024-03-25T10:53:02;8.05;;;1.55;;
40729;SDS011;26418;50.070;8.436;2024-03-25T10:55:31;6.38;;;1.25;;
40729;SDS011;26418;50.070;8.436;2024-03-25T10:57:58;5.45;;;1.65;;
40729;SDS011;26418;50.070;8.436;2024-03-25T11:00:25;5.50;;;1.50;;
40729;SDS011;26418;50.070;8.436;2024-03-25T11:02:51;7.18;;;1.63;;
40729;SDS011;26418;50.070;8.436;2024-03-25T11:05:18;4.72;;;1.52;;
40729;SDS011;26418;50.070;8.436;2024-03-25T11:07:44;5.50;;;1.60;;
40729;SDS011;26418;50.070;8.436;2024-03-25T11:10:13;7.63;;;2.05;;
40729;SDS011;26418;50.070;8.436;2024-03-25T11:12:49;5.28;;;1.83;;
40729;SDS011;26418;50.070;8.436;2024-03-25T11:15:14;5.40;;;1.45;;
40729;SDS011;26418;50.070;8.436;2024-03-25T11:17:48;6.47;;;1.85;;
40729;SDS011;26418;50.070;8.436;2024-03-25T11:20:15;3.58;;;1.27;;
40729;SDS011;26418;50.070;8.436;2024-03-25T11:22:48;4.15;;;1.65;;
40729;SDS011;26418;50.070;8.436;2024-03-25T11:25:15;5.25;;;1.60;;
40729;SDS011;26418;50.070;8.436;2024-03-25T11:27:42;5.07;;;1.52;;
40729;SDS011;26418;50.070;8.436;2024-03-25T11:30:10;5.78;;;1.50;;
40729;SDS011;26418;50.070;8.436;2024-03-25T11:32:45;5.00;;;1.27;;
40729;SDS011;26418;50.070;8.436;2024-03-25T11:35:12;4.97;;;1.75;;
40729;SDS011;26418;50.070;8.436;2024-03-25T11:37:39;4.40;;;1.23;;
40729;SDS011;26418;50.070;8.436;2024-03-25T11:40:06;6.38;;;2.78;;
40729;SDS011;26418;50.070;8.436;2024-03-25T11:42:32;6.68;;;1.55;;
40729;SDS011;26418;50.070;8.436;2024-03-25T11:44:59;4.75;;;1.30;;
40729;SDS011;26418;50.070;8.436;2024-03-25T11:47:25;4.28;;;1.63;;
40729;SDS011;26418;50.070;8.436;2024-03-25T11:49:55;7.95;;;1.45;;
40729;SDS011;26418;50.070;8.436;2024-03-25T11:52:21;6.30;;;2.00;;
40729;SDS011;26418;50.070;8.436;2024-03-25T11:54:53;4.65;;;1.27;;
40729;SDS011;26418;50.070;8.436;2024-03-25T11:57:19;4.05;;;1.83;;
40729;SDS011;26418;50.070;8.436;2024-03-25T11:59:46;2.70;;;1.00;;
40729;SDS011;26418;50.070;8.436;2024-03-25T12:02:13;3.70;;;1.67;;
40729;SDS011;26418;50.070;8.436;2024-03-25T12:04:43;4.47;;;1.30;;
40729;SDS011;26418;50.070;8.436;2024-03-25T12:07:10;5.40;;;1.50;;
40729;SDS011;26418;50.070;8.436;2024-03-25T12:09:39;4.72;;;1.83;;
40729;SDS011;26418;50.070;8.436;2024-03-25T12:12:26;3.53;;;1.25;;
40729;SDS011;26418;50.070;8.436;2024-03-25T12:14:53;4.72;;;1.40;;
40729;SDS011;26418;50.070;8.436;2024-03-25T12:17:19;4.72;;;1.33;;
40729;SDS011;26418;50.070;8.436;2024-03-25T12:19:58;4.53;;;1.50;;
40729;SDS011;26418;50.070;8.436;2024-03-25T12:22:44;6.22;;;1.38;;
40729;SDS011;26418;50.070;8.436;2024-03-25T12:25:09;5.28;;;1.35;;
40729;SDS011;26418;50.070;8.436;2024-03-25T12:27:39;5.72;;;1.70;;
40729;SDS011;26418;50.070;8.436;2024-03-25T12:35:05;4.47;;;1.30;;
40729;SDS011;26418;50.070;8.436;2024-03-25T12:37:42;6.00;;;1.73;;
40729;SDS011;26418;50.070;8.436;2024-03-25T12:40:12;5.32;;;1.65;;
40729;SDS011;26418;50.070;8.436;2024-03-25T12:42:51;6.72;;;1.98;;
40729;SDS011;26418;50.070;8.436;2024-03-25T12:45:18;4.90;;;1.63;;
40729;SDS011;26418;50.070;8.436;2024-03-25T12:47:45;4.57;;;1.63;;
40729;SDS011;26418;50.070;8.436;2024-03-25T12:50:10;3.95;;;1.30;;
40729;SDS011;26418;50.070;8.436;2024-03-25T12:52:36;4.65;;;1.45;;
40729;SDS011;26418;50.070;8.436;2024-03-25T12:55:02;5.05;;;1.25;;
40729;SDS011;26418;50.070;8.436;2024-03-25T12:57:28;3.80;;;1.27;;
40729;SDS011;26418;50.070;8.436;2024-03-25T12:59:54;5.32;;;1.10;;
40729;SDS011;26418;50.070;8.436;2024-03-25T13:02:20;3.65;;;1.75;;
40729;SDS011;26418;50.070;8.436;2024-03-25T13:04:48;3.03;;;1.17;;
40729;SDS011;26418;50.070;8.436;2024-03-25T13:07:14;4.25;;;1.90;;
40729;SDS011;26418;50.070;8.436;2024-03-25T13:09:39;2.88;;;1.10;;
40729;SDS011;26418;50.070;8.436;2024-03-25T13:12:05;5.90;;;1.27;;
40729;SDS011;26418;50.070;8.436;2024-03-25T13:14:31;6.40;;;1.20;;
40729;SDS011;26418;50.070;8.436;2024-03-25T13:16:56;4.75;;;1.23;;
40729;SDS011;26418;50.070;8.436;2024-03-25T13:19:22;4.28;;;1.30;;
40729;SDS011;26418;50.070;8.436;2024-03-25T13:21:47;2.65;;;0.90;;
40729;SDS011;26418;50.070;8.436;2024-03-25T13:24:13;2.83;;;1.17;;
40729;SDS011;26418;50.070;8.436;2024-03-25T13:26:42;4.85;;;1.02;;
40729;SDS011;26418;50.070;8.436;2024-03-25T13:29:08;3.00;;;0.88;;
40729;SDS011;26418;50.070;8.436;2024-03-25T13:31:36;2.22;;;0.80;;
40729;SDS011;26418;50.070;8.436;2024-03-25T13:34:02;7.25;;;1.23;;
40729;SDS011;26418;50.070;8.436;2024-03-25T13:36:27;4.82;;;1.10;;
40729;SDS011;26418;50.070;8.436;2024-03-25T13:38:56;3.38;;;1.13;;
40729;SDS011;26418;50.070;8.436;2024-03-25T13:41:21;3.47;;;1.50;;
40729;SDS011;26418;50.070;8.436;2024-03-25T13:43:49;2.78;;;1.15;;
40729;SDS011;26418;50.070;8.436;2024-03-25T13:46:17;4.43;;;1.17;;
40729;SDS011;26418;50.070;8.436;2024-03-25T13:48:43;4.22;;;1.00;;
40729;SDS011;26418;50.070;8.436;2024-03-25T13:51:08;5.30;;;1.20;;
40729;SDS011;26418;50.070;8.436;2024-03-25T13:53:43;2.60;;;0.80;;
40729;SDS011;26418;50.070;8.436;2024-03-25T13:56:08;2.58;;;0.80;;
40729;SDS011;26418;50.070;8.436;2024-03-25T13:58:34;5.38;;;1.48;;
40729;SDS011;26418;50.070;8.436;2024-03-25T14:00:59;4.05;;;1.20;;
40729;SDS011;26418;50.070;8.436;2024-03-25T14:03:26;5.43;;;1.55;;
40729;SDS011;26418;50.070;8.436;2024-03-25T14:05:51;6.18;;;1.30;;
40729;SDS011;26418;50.070;8.436;2024-03-25T14:08:17;2.45;;;1.30;;
40729;SDS011;26418;50.070;8.436;2024-03-25T14:10:43;5.07;;;1.55;;
40729;SDS011;26418;50.070;8.436;2024-03-25T14:13:09;3.97;;;1.35;;
40729;SDS011;26418;50.070;8.436;2024-03-25T14:15:34;3.60;;;0.85;;
40729;SDS011;26418;50.070;8.436;2024-03-25T14:18:00;5.25;;;1.30;;
40729;SDS011;26418;50.070;8.436;2024-03-25T14:20:28;2.88;;;0.85;;
40729;SDS011;26418;50.070;8.436;2024-03-25T14:22:58;2.58;;;1.00;;
40729;SDS011;26418;50.070;8.436;2024-03-25T14:25:26;5.07;;;0.90;;
40729;SDS011;26418;50.070;8.436;2024-03-25T14:27:51;4.15;;;1.45;;
40729;SDS011;26418;50.070;8.436;2024-03-25T14:30:22;8.77;;;1.42;;
40729;SDS011;26418;50.070;8.436;2024-03-25T14:32:51;4.70;;;1.17;;
40729;SDS011;26418;50.070;8.436;2024-03-25T14:35:16;5.60;;;1.20;;
40729;SDS011;26418;50.070;8.436;2024-03-25T14:37:42;3.40;;;1.20;;
40729;SDS011;26418;50.070;8.436;2024-03-25T14:40:08;3.63;;;1.27;;
40729;SDS011;26418;50.070;8.436;2024-03-25T14:42:34;6.40;;;1.00;;
40729;SDS011;26418;50.070;8.436;2024-03-25T14:44:59;5.07;;;0.75;;
40729;SDS011;26418;50.070;8.436;2024-03-25T14:47:25;3.60;;;1.50;;
40729;SDS011;26418;50.070;8.436;2024-03-25T14:49:56;1.45;;;0.60;;
40729;SDS011;26418;50.070;8.436;2024-03-25T14:52:22;3.97;;;1.27;;
40729;SDS011;26418;50.070;8.436;2024-03-25T14:54:48;4.55;;;1.17;;
40729;SDS011;26418;50.070;8.436;2024-03-25T14:57:14;1.38;;;0.70;;
40729;SDS011;26418;50.070;8.436;2024-03-25T14:59:39;4.05;;;0.82;;